sensor_id;sensor_type;location;lat;lon;timestamp;pressure;altitude;pressure_sealevel;temperature;humidity
74675;BME280;63200;48.810;12.352;2022-10-26T00:02:13;97703.88;;;6.34;77.93
74675;BME280;63200;48.810;12.352;2022-10-26T00:04:39;97727.25;;;6.50;77.84
74675;BME280;63200;48.810;12.352;2022-10-26T00:07:04;97707.44;;;6.40;77.64
74675;BME280;63200;48.810;12.352;2022-10-26T00:09:29;97736.47;;;6.55;77.77
74675;BME280;63200;48.810;12.352;2022-10-26T00:11:55;97701.44;;;6.32;77.97
74675;BME280;63200;48.810;12.352;2022-10-26T00:14:20;97736.41;;;6.49;78.07
74675;BME280;63200;48.810;12.352;2022-10-26T00:16:46;97737.44;;;6.43;77.85
74675;BME280;63200;48.810;12.352;2022-10-26T00:19:11;97693.69;;;6.19;77.42
74675;BME280;63200;48.810;12.352;2022-10-26T00:21:37;97731.53;;;6.46;78.07
74675;BME280;63200;48.810;12.352;2022-10-26T00:24:02;97727.69;;;6.42;77.86
74675;BME280;63200;48.810;12.352;2022-10-26T00:26:27;97723.38;;;6.41;77.90
74675;BME280;63200;48.810;12.352;2022-10-26T00:28:53;97712.78;;;6.34;77.84
74675;BME280;63200;48.810;12.352;2022-10-26T00:31:20;97730.06;;;6.39;77.76
74675;BME280;63200;48.810;12.352;2022-10-26T00:33:45;97730.59;;;6.36;77.94
74675;BME280;63200;48.810;12.352;2022-10-26T00:36:11;97741.38;;;6.36;78.07
74675;BME280;63200;48.810;12.352;2022-10-26T00:38:38;97746.84;;;6.41;78.51
74675;BME280;63200;48.810;12.352;2022-10-26T00:41:13;97708.09;;;6.25;78.44
74675;BME280;63200;48.810;12.352;2022-10-26T00:43:40;97744.28;;;6.51;78.08
74675;BME280;63200;48.810;12.352;2022-10-26T00:46:08;97725.13;;;6.30;77.97
74675;BME280;63200;48.810;12.352;2022-10-26T00:48:39;97749.88;;;6.49;77.98
74675;BME280;63200;48.810;12.352;2022-10-26T00:51:11;97741.38;;;6.58;78.34
74675;BME280;63200;48.810;12.352;2022-10-26T00:53:37;97752.16;;;6.58;78.45
74675;BME280;63200;48.810;12.352;2022-10-26T00:56:03;97722.44;;;6.53;78.53
74675;BME280;63200;48.810;12.352;2022-10-26T00:58:29;97720.59;;;6.58;78.04
74675;BME280;63200;48.810;12.352;2022-10-26T01:00:54;97714.47;;;6.63;77.99
74675;BME280;63200;48.810;12.352;2022-10-26T01:03:20;97724.09;;;6.81;77.76
74675;BME280;63200;48.810;12.352;2022-10-26T01:05:49;97716.63;;;6.88;78.12
74675;BME280;63200;48.810;12.352;2022-10-26T01:08:17;97714.00;;;6.98;77.99
74675;BME280;63200;48.810;12.352;2022-10-26T01:10:42;97681.25;;;6.90;77.98
74675;BME280;63200;48.810;12.352;2022-10-26T01:13:08;97698.56;;;7.21;77.95
74675;BME280;63200;48.810;12.352;2022-10-26T01:15:50;97673.44;;;7.21;77.68
74675;BME280;63200;48.810;12.352;2022-10-26T01:18:34;97689.16;;;7.29;78.25
74675;BME280;63200;48.810;12.352;2022-10-26T01:31:37;97721.66;;;7.39;79.28
74675;BME280;63200;48.810;12.352;2022-10-26T01:34:09;97713.59;;;7.44;79.14
74675;BME280;63200;48.810;12.352;2022-10-26T01:36:42;97709.25;;;7.43;79.16
74675;BME280;63200;48.810;12.352;2022-10-26T01:39:22;97704.94;;;7.42;78.58
74675;BME280;63200;48.810;12.352;2022-10-26T01:41:51;97691.66;;;7.41;78.90
74675;BME280;63200;48.810;12.352;2022-10-26T01:44:25;97690.94;;;7.50;78.79
74675;BME280;63200;48.810;12.352;2022-10-26T01:46:54;97691.25;;;7.54;79.01
74675;BME280;63200;48.810;12.352;2022-10-26T01:49:24;97700.88;;;7.40;79.40
74675;BME280;63200;48.810;12.352;2022-10-26T01:51:50;97678.03;;;7.20;79.31
74675;BME280;63200;48.810;12.352;2022-10-26T01:54:16;97662.09;;;7.19;79.09
74675;BME280;63200;48.810;12.352;2022-10-26T01:56:44;97685.81;;;7.49;78.73
74675;BME280;63200;48.810;12.352;2022-10-26T02:02:06;97669.59;;;7.49;78.50
74675;BME280;63200;48.810;12.352;2022-10-26T02:15:29;97653.03;;;7.83;80.15
74675;BME280;63200;48.810;12.352;2022-10-26T02:18:03;97644.78;;;8.05;80.02
74675;BME280;63200;48.810;12.352;2022-10-26T02:20:36;97644.28;;;8.18;80.31
74675;BME280;63200;48.810;12.352;2022-10-26T02:23:05;97629.91;;;8.08;80.25
74675;BME280;63200;48.810;12.352;2022-10-26T02:25:35;97658.91;;;8.28;80.39
74675;BME280;63200;48.810;12.352;2022-10-26T02:28:06;97680.88;;;8.37;81.14
74675;BME280;63200;48.810;12.352;2022-10-26T02:30:35;97721.13;;;8.28;81.52
74675;BME280;63200;48.810;12.352;2022-10-26T02:33:03;97695.13;;;8.16;81.02
74675;BME280;63200;48.810;12.352;2022-10-26T02:35:31;97721.19;;;8.38;80.96
74675;BME280;63200;48.810;12.352;2022-10-26T02:38:00;97708.47;;;8.33;80.43
74675;BME280;63200;48.810;12.352;2022-10-26T02:40:29;97732.56;;;8.40;79.81
74675;BME280;63200;48.810;12.352;2022-10-26T02:42:59;97716.88;;;8.42;79.98
74675;BME280;63200;48.810;12.352;2022-10-26T02:45:32;97676.47;;;8.20;79.68
74675;BME280;63200;48.810;12.352;2022-10-26T02:47:58;97711.47;;;8.42;79.59
74675;BME280;63200;48.810;12.352;2022-10-26T02:50:32;97699.28;;;8.45;79.57
74675;BME280;63200;48.810;12.352;2022-10-26T02:53:17;97698.53;;;8.49;79.11
74675;BME280;63200;48.810;12.352;2022-10-26T02:55:49;97693.63;;;8.46;79.08
74675;BME280;63200;48.810;12.352;2022-10-26T02:58:42;97687.94;;;8.43;79.32
74675;BME280;63200;48.810;12.352;2022-10-26T03:01:10;97662.81;;;8.53;79.85
74675;BME280;63200;48.810;12.352;2022-10-26T03:03:35;97665.06;;;8.87;79.09
74675;BME280;63200;48.810;12.352;2022-10-26T03:06:00;97659.63;;;8.97;78.92
74675;BME280;63200;48.810;12.352;2022-10-26T03:08:26;97630.09;;;8.59;79.63
74675;BME280;63200;48.810;12.352;2022-10-26T03:10:51;97668.56;;;8.87;79.85
74675;BME280;63200;48.810;12.352;2022-10-26T03:13:16;97651.13;;;8.37;81.66
74675;BME280;63200;48.810;12.352;2022-10-26T03:15:42;97698.59;;;8.75;81.50
74675;BME280;63200;48.810;12.352;2022-10-26T03:18:07;97689.16;;;8.83;82.14
74675;BME280;63200;48.810;12.352;2022-10-26T03:20:32;97675.38;;;9.05;81.62
74675;BME280;63200;48.810;12.352;2022-10-26T03:22:58;97677.81;;;9.58;81.71
74675;BME280;63200;48.810;12.352;2022-10-26T03:25:24;97663.53;;;10.18;80.30
74675;BME280;63200;48.810;12.352;2022-10-26T03:28:00;97654.16;;;9.90;80.42
74675;BME280;63200;48.810;12.352;2022-10-26T03:30:26;97670.94;;;9.92;79.99
74675;BME280;63200;48.810;12.352;2022-10-26T03:32:51;97686.69;;;9.90;80.27
74675;BME280;63200;48.810;12.352;2022-10-26T03:35:17;97694.56;;;9.86;80.43
74675;BME280;63200;48.810;12.352;2022-10-26T03:37:42;97695.94;;;9.83;80.47
74675;BME280;63200;48.810;12.352;2022-10-26T03:40:08;97705.13;;;9.88;80.39
74675;BME280;63200;48.810;12.352;2022-10-26T03:42:36;97691.84;;;9.86;80.33
74675;BME280;63200;48.810;12.352;2022-10-26T03:45:03;97689.63;;;10.09;80.08
74675;BME280;63200;48.810;12.352;2022-10-26T03:47:28;97687.69;;;10.14;79.94
74675;BME280;63200;48.810;12.352;2022-10-26T03:49:54;97680.84;;;10.32;79.01
74675;BME280;63200;48.810;12.352;2022-10-26T03:52:19;97681.47;;;10.09;79.55
74675;BME280;63200;48.810;12.352;2022-10-26T03:54:44;97692.91;;;10.06;80.15
74675;BME280;63200;48.810;12.352;2022-10-26T03:57:10;97672.59;;;9.88;80.11
74675;BME280;63200;48.810;12.352;2022-10-26T03:59:35;97672.59;;;9.88;80.48
74675;BME280;63200;48.810;12.352;2022-10-26T04:02:01;97651.94;;;9.97;79.99
74675;BME280;63200;48.810;12.352;2022-10-26T04:04:27;97664.72;;;9.96;79.97
74675;BME280;63200;48.810;12.352;2022-10-26T04:06:52;97683.41;;;9.98;80.23
74675;BME280;63200;48.810;12.352;2022-10-26T04:09:17;97686.13;;;9.98;80.53
74675;BME280;63200;48.810;12.352;2022-10-26T04:11:43;97685.03;;;9.99;80.72
74675;BME280;63200;48.810;12.352;2022-10-26T04:14:08;97681.78;;;10.02;80.38
74675;BME280;63200;48.810;12.352;2022-10-26T04:16:33;97675.56;;;9.91;80.56
74675;BME280;63200;48.810;12.352;2022-10-26T04:18:59;97697.50;;;10.05;80.31
74675;BME280;63200;48.810;12.352;2022-10-26T04:21:25;97688.84;;;9.98;80.56
74675;BME280;63200;48.810;12.352;2022-10-26T04:23:50;97695.34;;;10.02;80.49
74675;BME280;63200;48.810;12.352;2022-10-26T04:26:15;97692.63;;;9.97;80.36
74675;BME280;63200;48.810;12.352;2022-10-26T04:28:41;97699.69;;;9.98;81.03
74675;BME280;63200;48.810;12.352;2022-10-26T04:31:06;97691.78;;;10.12;80.10
74675;BME280;63200;48.810;12.352;2022-10-26T04:33:31;97695.91;;;9.99;79.86
74675;BME280;63200;48.810;12.352;2022-10-26T04:36:00;97704.84;;;9.94;80.25
74675;BME280;63200;48.810;12.352;2022-10-26T04:38:25;97708.41;;;9.90;80.26
74675;BME280;63200;48.810;12.352;2022-10-26T04:40:51;97711.09;;;9.90;80.60
74675;BME280;63200;48.810;12.352;2022-10-26T04:43:16;97713.81;;;9.84;80.73
74675;BME280;63200;48.810;12.352;2022-10-26T04:45:41;97707.88;;;9.67;80.87
74675;BME280;63200;48.810;12.352;2022-10-26T04:48:12;97719.53;;;9.83;81.10
74675;BME280;63200;48.810;12.352;2022-10-26T04:50:38;97739.31;;;9.83;80.92
74675;BME280;63200;48.810;12.352;2022-10-26T04:53:05;97737.94;;;9.86;81.09
74675;BME280;63200;48.810;12.352;2022-10-26T04:55:30;97724.66;;;9.84;80.94
74675;BME280;63200;48.810;12.352;2022-10-26T04:57:56;97732.81;;;9.90;80.99
74675;BME280;63200;48.810;12.352;2022-10-26T05:00:21;97710.03;;;9.75;80.46
74675;BME280;63200;48.810;12.352;2022-10-26T05:02:46;97719.78;;;9.87;79.98
74675;BME280;63200;48.810;12.352;2022-10-26T05:05:12;97697.00;;;9.72;80.14
74675;BME280;63200;48.810;12.352;2022-10-26T05:07:37;97716.00;;;9.82;80.40
74675;BME280;63200;48.810;12.352;2022-10-26T05:10:03;97718.16;;;9.86;80.41
74675;BME280;63200;48.810;12.352;2022-10-26T05:12:29;97720.88;;;9.86;80.42
74675;BME280;63200;48.810;12.352;2022-10-26T05:14:54;97722.75;;;9.85;80.67
74675;BME280;63200;48.810;12.352;2022-10-26T05:17:26;97725.47;;;9.85;80.93
74675;BME280;63200;48.810;12.352;2022-10-26T05:19:52;97714.34;;;9.81;80.78
74675;BME280;63200;48.810;12.352;2022-10-26T05:22:25;97727.38;;;9.90;80.69
74675;BME280;63200;48.810;12.352;2022-10-26T05:24:50;97727.66;;;9.83;81.08
74675;BME280;63200;48.810;12.352;2022-10-26T05:27:16;97723.31;;;9.87;80.94
74675;BME280;63200;48.810;12.352;2022-10-26T05:29:41;97730.63;;;9.92;81.13
74675;BME280;63200;48.810;12.352;2022-10-26T05:32:07;97718.16;;;9.86;80.72
74675;BME280;63200;48.810;12.352;2022-10-26T05:34:32;97699.72;;;9.77;80.66
74675;BME280;63200;48.810;12.352;2022-10-26T05:36:57;97718.41;;;9.94;80.57
74675;BME280;63200;48.810;12.352;2022-10-26T05:39:22;97721.69;;;9.91;80.99
74675;BME280;63200;48.810;12.352;2022-10-26T05:41:48;97726.25;;;9.91;80.74
74675;BME280;63200;48.810;12.352;2022-10-26T05:44:13;97724.66;;;9.84;81.01
74675;BME280;63200;48.810;12.352;2022-10-26T05:46:38;97703.78;;;9.75;80.79
74675;BME280;63200;48.810;12.352;2022-10-26T05:49:04;97738.75;;;9.92;81.01
74675;BME280;63200;48.810;12.352;2022-10-26T05:51:32;97730.38;;;9.83;80.81
74675;BME280;63200;48.810;12.352;2022-10-26T05:53:59;97742.53;;;9.96;80.57
74675;BME280;63200;48.810;12.352;2022-10-26T05:56:34;97746.31;;;10.00;80.55
74675;BME280;63200;48.810;12.352;2022-10-26T05:59:00;97730.09;;;9.84;80.54
74675;BME280;63200;48.810;12.352;2022-10-26T06:01:32;97750.69;;;9.96;80.48
74675;BME280;63200;48.810;12.352;2022-10-26T06:06:53;97772.66;;;9.84;81.16
74675;BME280;63200;48.810;12.352;2022-10-26T06:09:20;97775.91;;;9.86;80.89
74675;BME280;63200;48.810;12.352;2022-10-26T06:11:46;97787.84;;;9.80;81.05
74675;BME280;63200;48.810;12.352;2022-10-26T06:14:11;97800.03;;;9.77;81.08
74675;BME280;63200;48.810;12.352;2022-10-26T06:19:46;97814.69;;;9.76;81.24
74675;BME280;63200;48.810;12.352;2022-10-26T06:27:53;97830.97;;;9.92;81.02
74675;BME280;63200;48.810;12.352;2022-10-26T06:30:21;97826.38;;;9.92;80.97
74675;BME280;63200;48.810;12.352;2022-10-26T06:32:48;97863.75;;;9.80;81.34
74675;BME280;63200;48.810;12.352;2022-10-26T06:38:14;97848.06;;;9.92;81.27
74675;BME280;63200;48.810;12.352;2022-10-26T06:40:42;97844.53;;;9.92;81.31
74675;BME280;63200;48.810;12.352;2022-10-26T06:43:24;97842.63;;;10.08;80.42
74675;BME280;63200;48.810;12.352;2022-10-26T06:49:05;97828.19;;;10.54;79.34
74675;BME280;63200;48.810;12.352;2022-10-26T06:51:40;97826.28;;;10.54;78.74
74675;BME280;63200;48.810;12.352;2022-10-26T06:54:15;97834.50;;;10.39;79.58
74675;BME280;63200;48.810;12.352;2022-10-26T06:56:43;97833.66;;;10.23;80.23
74675;BME280;63200;48.810;12.352;2022-10-26T06:59:37;97842.06;;;10.26;80.00
74675;BME280;63200;48.810;12.352;2022-10-26T07:02:04;97832.03;;;10.32;79.61
74675;BME280;63200;48.810;12.352;2022-10-26T07:04:29;97797.28;;;10.34;79.66
74675;BME280;63200;48.810;12.352;2022-10-26T07:06:55;97810.25;;;10.68;78.67
74675;BME280;63200;48.810;12.352;2022-10-26T07:09:21;97808.41;;;10.53;78.89
74675;BME280;63200;48.810;12.352;2022-10-26T07:11:47;97798.34;;;10.48;79.77
74675;BME280;63200;48.810;12.352;2022-10-26T07:14:12;97800.25;;;10.48;79.71
74675;BME280;63200;48.810;12.352;2022-10-26T07:16:37;97801.06;;;10.48;80.44
74675;BME280;63200;48.810;12.352;2022-10-26T07:19:03;97792.09;;;10.53;79.92
74675;BME280;63200;48.810;12.352;2022-10-26T07:21:28;97776.38;;;10.45;79.70
74675;BME280;63200;48.810;12.352;2022-10-26T07:23:53;97798.28;;;10.69;79.77
74675;BME280;63200;48.810;12.352;2022-10-26T07:26:21;97805.59;;;10.74;79.97
74675;BME280;63200;48.810;12.352;2022-10-26T07:28:48;97817.28;;;10.74;80.08
74675;BME280;63200;48.810;12.352;2022-10-26T07:31:14;97825.13;;;10.81;80.20
74675;BME280;63200;48.810;12.352;2022-10-26T07:33:39;97830.78;;;10.90;80.18
74675;BME280;63200;48.810;12.352;2022-10-26T07:36:06;97832.97;;;10.93;80.31
74675;BME280;63200;48.810;12.352;2022-10-26T07:38:35;97833.72;;;11.04;80.14
74675;BME280;63200;48.810;12.352;2022-10-26T07:41:01;97802.03;;;10.83;79.59
74675;BME280;63200;48.810;12.352;2022-10-26T07:43:26;97851.09;;;11.13;79.92
74675;BME280;63200;48.810;12.352;2022-10-26T07:45:51;97875.72;;;11.32;79.30
74675;BME280;63200;48.810;12.352;2022-10-26T07:48:17;97859.38;;;11.37;79.22
74675;BME280;63200;48.810;12.352;2022-10-26T07:50:42;97860.41;;;11.46;78.96
74675;BME280;63200;48.810;12.352;2022-10-26T07:53:08;97858.16;;;11.59;78.11
74675;BME280;63200;48.810;12.352;2022-10-26T07:55:33;97841.34;;;11.52;78.02
74675;BME280;63200;48.810;12.352;2022-10-26T07:57:58;97862.53;;;11.55;78.63
74675;BME280;63200;48.810;12.352;2022-10-26T08:00:24;97856.28;;;11.54;78.44
74675;BME280;63200;48.810;12.352;2022-10-26T08:02:50;97852.13;;;11.72;77.60
74675;BME280;63200;48.810;12.352;2022-10-26T08:05:15;97860.22;;;11.77;77.82
74675;BME280;63200;48.810;12.352;2022-10-26T08:07:42;97858.28;;;11.83;77.14
74675;BME280;63200;48.810;12.352;2022-10-26T08:10:09;97870.63;;;11.65;78.14
74675;BME280;63200;48.810;12.352;2022-10-26T08:12:34;97862.44;;;11.70;77.38
74675;BME280;63200;48.810;12.352;2022-10-26T08:14:59;97865.72;;;11.72;77.41
74675;BME280;63200;48.810;12.352;2022-10-26T08:17:25;97841.31;;;11.57;77.38
74675;BME280;63200;48.810;12.352;2022-10-26T08:19:50;97855.66;;;11.67;78.11
74675;BME280;63200;48.810;12.352;2022-10-26T08:22:15;97861.88;;;11.73;78.19
74675;BME280;63200;48.810;12.352;2022-10-26T08:24:40;97859.09;;;11.83;77.21
74675;BME280;63200;48.810;12.352;2022-10-26T08:27:08;97854.22;;;11.80;77.83
74675;BME280;63200;48.810;12.352;2022-10-26T08:29:33;97858.84;;;11.80;78.16
74675;BME280;63200;48.810;12.352;2022-10-26T08:31:58;97862.34;;;11.86;78.04
74675;BME280;63200;48.810;12.352;2022-10-26T08:34:24;97867.50;;;11.87;78.15
74675;BME280;63200;48.810;12.352;2022-10-26T08:36:49;97883.50;;;11.94;78.01
74675;BME280;63200;48.810;12.352;2022-10-26T08:39:14;97882.91;;;12.02;77.79
74675;BME280;63200;48.810;12.352;2022-10-26T08:41:42;97886.66;;;12.11;77.45
74675;BME280;63200;48.810;12.352;2022-10-26T08:46:39;97898.06;;;12.48;76.62
74675;BME280;63200;48.810;12.352;2022-10-26T08:49:17;97872.63;;;12.58;74.36
74675;BME280;63200;48.810;12.352;2022-10-26T08:51:44;97871.06;;;12.52;74.93
74675;BME280;63200;48.810;12.352;2022-10-26T08:54:23;97884.00;;;12.65;74.98
74675;BME280;63200;48.810;12.352;2022-10-26T08:56:54;97887.84;;;12.64;75.42
74675;BME280;63200;48.810;12.352;2022-10-26T08:59:36;97887.84;;;12.64;75.51
74675;BME280;63200;48.810;12.352;2022-10-26T09:02:02;97886.16;;;12.68;75.68
74675;BME280;63200;48.810;12.352;2022-10-26T09:04:29;97889.47;;;12.65;75.65
74675;BME280;63200;48.810;12.352;2022-10-26T09:12:46;97872.19;;;12.75;75.55
74675;BME280;63200;48.810;12.352;2022-10-26T09:15:21;97877.53;;;12.85;75.24
74675;BME280;63200;48.810;12.352;2022-10-26T09:21:05;97874.47;;;12.68;75.80
74675;BME280;63200;48.810;12.352;2022-10-26T09:29:02;97883.97;;;12.70;76.47
74675;BME280;63200;48.810;12.352;2022-10-26T09:31:31;97867.09;;;12.68;76.21
74675;BME280;63200;48.810;12.352;2022-10-26T09:34:01;97891.41;;;12.89;75.74
74675;BME280;63200;48.810;12.352;2022-10-26T09:36:29;97874.00;;;12.85;75.79
74675;BME280;63200;48.810;12.352;2022-10-26T09:39:01;97868.47;;;12.90;75.54
74675;BME280;63200;48.810;12.352;2022-10-26T09:41:41;97895.16;;;13.17;75.14
74675;BME280;63200;48.810;12.352;2022-10-26T09:44:20;97875.78;;;13.19;74.39
74675;BME280;63200;48.810;12.352;2022-10-26T09:52:33;97873.34;;;13.17;74.66
74675;BME280;63200;48.810;12.352;2022-10-26T09:54:59;97893.53;;;13.40;74.43
74675;BME280;63200;48.810;12.352;2022-10-26T09:57:24;97899.06;;;13.54;74.74
74675;BME280;63200;48.810;12.352;2022-10-26T09:59:51;97891.56;;;13.46;74.61
74675;BME280;63200;48.810;12.352;2022-10-26T10:02:36;97903.94;;;13.57;74.19
74675;BME280;63200;48.810;12.352;2022-10-26T10:05:16;97900.19;;;13.72;74.24
74675;BME280;63200;48.810;12.352;2022-10-26T10:07:44;97906.53;;;14.06;72.12
74675;BME280;63200;48.810;12.352;2022-10-26T10:10:21;97907.25;;;14.11;72.48
74675;BME280;63200;48.810;12.352;2022-10-26T10:12:49;97902.09;;;14.43;71.31
74675;BME280;63200;48.810;12.352;2022-10-26T10:17:47;97905.91;;;14.61;70.90
74675;BME280;63200;48.810;12.352;2022-10-26T10:20:21;97897.03;;;14.69;70.48
74675;BME280;63200;48.810;12.352;2022-10-26T10:22:57;97910.94;;;14.54;71.21
74675;BME280;63200;48.810;12.352;2022-10-26T10:25:32;97910.84;;;14.59;69.85
74675;BME280;63200;48.810;12.352;2022-10-26T10:27:58;97920.16;;;14.58;70.18
74675;BME280;63200;48.810;12.352;2022-10-26T10:30:30;97904.28;;;14.60;70.62
74675;BME280;63200;48.810;12.352;2022-10-26T10:33:32;97913.66;;;14.54;69.18
74675;BME280;63200;48.810;12.352;2022-10-26T10:35:59;97911.75;;;14.54;69.19
74675;BME280;63200;48.810;12.352;2022-10-26T10:38:25;97902.81;;;14.48;70.42
74675;BME280;63200;48.810;12.352;2022-10-26T10:40:53;97906.28;;;14.54;70.60
74675;BME280;63200;48.810;12.352;2022-10-26T10:43:19;97925.03;;;14.61;71.77
74675;BME280;63200;48.810;12.352;2022-10-26T10:45:47;97891.69;;;14.45;71.73
74675;BME280;63200;48.810;12.352;2022-10-26T10:48:21;97917.78;;;14.70;69.61
74675;BME280;63200;48.810;12.352;2022-10-26T10:50:54;97910.47;;;14.65;69.42
74675;BME280;63200;48.810;12.352;2022-10-26T11:01:30;97911.03;;;14.95;69.29
74675;BME280;63200;48.810;12.352;2022-10-26T11:06:47;97900.72;;;15.06;69.66
74675;BME280;63200;48.810;12.352;2022-10-26T11:09:15;97902.03;;;15.23;69.38
74675;BME280;63200;48.810;12.352;2022-10-26T11:11:49;97907.81;;;15.35;69.31
74675;BME280;63200;48.810;12.352;2022-10-26T11:14:25;97921.06;;;15.42;69.44
74675;BME280;63200;48.810;12.352;2022-10-26T11:17:03;97923.69;;;15.33;69.57
74675;BME280;63200;48.810;12.352;2022-10-26T11:19:55;97923.59;;;15.38;69.65
74675;BME280;63200;48.810;12.352;2022-10-26T11:22:29;97910.53;;;15.35;68.91
74675;BME280;63200;48.810;12.352;2022-10-26T11:25:00;97916.63;;;15.32;68.63
74675;BME280;63200;48.810;12.352;2022-10-26T11:27:40;97915.31;;;15.29;68.75
74675;BME280;63200;48.810;12.352;2022-10-26T11:30:23;97900.81;;;15.01;68.88
74675;BME280;63200;48.810;12.352;2022-10-26T11:33:01;97914.25;;;14.97;70.10
74675;BME280;63200;48.810;12.352;2022-10-26T11:35:34;97898.13;;;14.68;70.89
74675;BME280;63200;48.810;12.352;2022-10-26T11:40:41;97925.53;;;14.63;71.42
74675;BME280;63200;48.810;12.352;2022-10-26T11:43:22;97919.66;;;14.56;71.82
74675;BME280;63200;48.810;12.352;2022-10-26T11:52:03;97930.94;;;14.68;72.18
74675;BME280;63200;48.810;12.352;2022-10-26T11:54:34;97936.00;;;14.75;71.91
74675;BME280;63200;48.810;12.352;2022-10-26T11:57:03;97939.50;;;14.94;71.44
74675;BME280;63200;48.810;12.352;2022-10-26T11:59:31;97914.38;;;15.06;69.77
74675;BME280;63200;48.810;12.352;2022-10-26T12:02:04;97946.59;;;15.23;69.81
74675;BME280;63200;48.810;12.352;2022-10-26T12:04:32;97925.03;;;15.22;69.72
74675;BME280;63200;48.810;12.352;2022-10-26T12:07:01;97949.50;;;15.69;69.64
74675;BME280;63200;48.810;12.352;2022-10-26T12:09:33;97924.94;;;15.91;68.62
74675;BME280;63200;48.810;12.352;2022-10-26T12:14:40;97960.56;;;16.51;65.89
74675;BME280;63200;48.810;12.352;2022-10-26T12:19:57;97928.34;;;16.11;66.35
74675;BME280;63200;48.810;12.352;2022-10-26T12:22:31;97960.53;;;16.05;67.21
74675;BME280;63200;48.810;12.352;2022-10-26T12:38:00;97969.13;;;17.43;64.03
74675;BME280;63200;48.810;12.352;2022-10-26T12:42:54;97969.84;;;17.18;64.48
74675;BME280;63200;48.810;12.352;2022-10-26T12:45:20;97974.16;;;17.10;64.37
74675;BME280;63200;48.810;12.352;2022-10-26T12:52:48;97973.94;;;16.75;65.01
74675;BME280;63200;48.810;12.352;2022-10-26T12:58:04;97983.22;;;16.65;65.16
74675;BME280;63200;48.810;12.352;2022-10-26T13:00:43;97958.75;;;16.69;66.01
74675;BME280;63200;48.810;12.352;2022-10-26T13:03:32;97977.44;;;16.66;66.44
74675;BME280;63200;48.810;12.352;2022-10-26T13:06:05;97983.13;;;16.47;66.30
74675;BME280;63200;48.810;12.352;2022-10-26T13:08:49;97985.72;;;16.53;66.57
74675;BME280;63200;48.810;12.352;2022-10-26T13:11:18;97978.81;;;16.55;67.08
74675;BME280;63200;48.810;12.352;2022-10-26T13:13:53;97984.84;;;16.66;66.37
74675;BME280;63200;48.810;12.352;2022-10-26T13:16:19;97979.28;;;16.57;66.61
74675;BME280;63200;48.810;12.352;2022-10-26T13:18:45;97977.00;;;16.51;66.85
74675;BME280;63200;48.810;12.352;2022-10-26T13:21:19;97984.84;;;16.43;67.09
74675;BME280;63200;48.810;12.352;2022-10-26T13:26:22;97982.13;;;16.43;67.89
74675;BME280;63200;48.810;12.352;2022-10-26T13:28:50;97982.91;;;16.44;67.74
74675;BME280;63200;48.810;12.352;2022-10-26T13:31:50;97981.72;;;16.36;67.77
74675;BME280;63200;48.810;12.352;2022-10-26T13:39:05;97962.41;;;16.19;68.35
74675;BME280;63200;48.810;12.352;2022-10-26T13:41:39;97975.78;;;16.20;68.67
74675;BME280;63200;48.810;12.352;2022-10-26T13:44:13;97985.53;;;16.26;68.56
74675;BME280;63200;48.810;12.352;2022-10-26T13:46:41;97962.94;;;16.07;68.82
74675;BME280;63200;48.810;12.352;2022-10-26T13:49:19;97975.72;;;16.11;69.22
74675;BME280;63200;48.810;12.352;2022-10-26T13:51:49;97936.66;;;15.69;69.57
74675;BME280;63200;48.810;12.352;2022-10-26T13:54:23;97986.03;;;15.92;69.75
74675;BME280;63200;48.810;12.352;2022-10-26T13:57:11;97994.13;;;15.83;70.04
74675;BME280;63200;48.810;12.352;2022-10-26T13:59:42;97985.00;;;15.74;70.79
74675;BME280;63200;48.810;12.352;2022-10-26T14:02:25;97995.44;;;15.72;70.66
74675;BME280;63200;48.810;12.352;2022-10-26T14:04:53;98006.59;;;15.61;71.27
74675;BME280;63200;48.810;12.352;2022-10-26T14:07:27;98009.75;;;15.55;71.38
74675;BME280;63200;48.810;12.352;2022-10-26T14:09:57;97999.09;;;15.39;71.95
74675;BME280;63200;48.810;12.352;2022-10-26T14:12:25;98006.78;;;15.37;72.10
74675;BME280;63200;48.810;12.352;2022-10-26T14:14:56;98022.78;;;15.30;72.54
74675;BME280;63200;48.810;12.352;2022-10-26T14:17:24;98008.09;;;15.26;72.90
74675;BME280;63200;48.810;12.352;2022-10-26T14:19:50;98005.28;;;15.31;72.61
74675;BME280;63200;48.810;12.352;2022-10-26T14:22:27;97979.22;;;15.20;72.02
74675;BME280;63200;48.810;12.352;2022-10-26T14:24:56;98005.28;;;15.31;72.63
74675;BME280;63200;48.810;12.352;2022-10-26T14:27:25;98006.56;;;15.20;72.69
74675;BME280;63200;48.810;12.352;2022-10-26T14:29:51;98017.91;;;15.13;72.90
74675;BME280;63200;48.810;12.352;2022-10-26T14:32:31;98001.47;;;14.99;72.73
74675;BME280;63200;48.810;12.352;2022-10-26T14:34:57;98011.00;;;15.02;73.11
74675;BME280;63200;48.810;12.352;2022-10-26T14:37:45;98020.00;;;15.02;73.02
74675;BME280;63200;48.810;12.352;2022-10-26T14:40:16;98010.22;;;15.15;72.86
74675;BME280;63200;48.810;12.352;2022-10-26T14:42:42;98021.91;;;15.48;71.85
74675;BME280;63200;48.810;12.352;2022-10-26T14:47:54;98022.09;;;15.80;70.60
74675;BME280;63200;48.810;12.352;2022-10-26T14:50:22;98028.78;;;15.74;70.62
74675;BME280;63200;48.810;12.352;2022-10-26T14:52:53;98032.22;;;15.79;70.30
74675;BME280;63200;48.810;12.352;2022-10-26T14:55:20;98027.69;;;15.89;70.55
74675;BME280;63200;48.810;12.352;2022-10-26T14:57:47;98035.50;;;15.81;70.50
74675;BME280;63200;48.810;12.352;2022-10-26T15:02:48;98041.25;;;15.80;70.85
74675;BME280;63200;48.810;12.352;2022-10-26T15:07:49;98033.78;;;15.86;70.17
74675;BME280;63200;48.810;12.352;2022-10-26T15:15:43;98066.00;;;15.89;69.98
74675;BME280;63200;48.810;12.352;2022-10-26T15:18:29;98053.53;;;15.55;71.09
74675;BME280;63200;48.810;12.352;2022-10-26T15:20:57;98057.16;;;15.36;71.78
74675;BME280;63200;48.810;12.352;2022-10-26T15:23:24;98059.75;;;15.27;72.01